Terminal Aerodrome Forecast
Issued by NWS

Home | Current Version | Previous Version | Text Only | Print | Product List | Glossary Off
Versions: 1 2 3 4 5 6 7 8 9 10 11 12 13 14 15

000
FTUS43 KGRB 242300
TAFMTW
TAF
KMTW 242321Z 2500/2524 25006KT P6SM BKN050 BKN090
     FM250200 02009G15KT 6SM -SN SCT020 OVC040
      TEMPO 2502/2505 4SM -SHSN BKN020
     FM250500 03014G22KT P6SM -SN BKN018 OVC025
     FM251800 04013G19KT P6SM SCT022 SCT035
     FM252300 04011KT P6SM SKC=

USA.gov is the U.S. government's official web portal to all federal, state and local government web resources and services.